Time;durP1;ratioP1;P1;durP2;ratioP2;P2;SDS_P1;SDS_P2;PMS_P1;PMS_P2;Temp;Humidity;BMP_temperature;BMP_pressure;BME280_temperature;BME280_humidity;BME280_pressure;Samples;Min_cycle;Max_cycle;Signal;HPM_P1;HPM_P2
2022/07/19 00:02:06;;;;;;;4.68;1.98;;;;;;;21.59;64.58;101752.28;4954187;28;102691;-67
2022/07/19 00:04:35;;;;;;;2.80;1.50;;;;;;;21.58;64.44;101751.47;4952517;28;104013;-67
2022/07/19 00:07:01;;;;;;;2.53;1.80;;;;;;;21.58;64.18;101756.19;4952767;28;102450;-68
2022/07/19 00:09:28;;;;;;;1.48;1.35;;;;;;;21.58;64.83;101750.66;4956351;28;102470;-57
2022/07/19 00:11:58;;;;;;;4.57;1.80;;;;;;;21.57;64.67;101755.38;4973013;28;102135;-66
2022/07/19 00:14:24;;;;;;;3.22;2.03;;;;;;;21.58;64.70;101754.22;4945073;28;103973;-66
2022/07/19 00:16:51;;;;;;;2.70;1.75;;;;;;;21.58;64.64;101753.41;4938725;28;102319;-67
2022/07/19 00:19:17;;;;;;;2.92;2.00;;;;;;;21.57;64.37;101755.38;4941953;28;101985;-67
2022/07/19 00:21:44;;;;;;;5.35;2.00;;;;;;;21.58;64.55;101756.19;4978116;28;102202;-67
2022/07/19 00:24:10;;;;;;;3.83;2.00;;;;;;;21.58;64.63;101751.47;4975208;28;104017;-68
2022/07/19 00:26:37;;;;;;;2.92;1.92;;;;;;;21.57;64.50;101754.56;4972518;28;102452;-65
2022/07/19 00:29:04;;;;;;;3.10;1.90;;;;;;;21.57;64.42;101760.91;4976547;28;102673;-65
2022/07/19 00:31:31;;;;;;;2.40;1.90;;;;;;;21.58;64.35;101757.00;4976245;28;102686;-66
2022/07/19 00:33:58;;;;;;;5.22;2.03;;;;;;;21.58;64.34;101756.19;4975722;28;104615;-66
2022/07/19 00:36:27;;;;;;;6.40;1.90;;;;;;;21.57;64.70;101760.09;4977099;28;101900;-66
2022/07/19 00:38:53;;;;;;;3.80;2.13;;;;;;;21.56;64.43;101761.22;4977392;28;102318;-66
2022/07/19 00:41:20;;;;;;;4.57;2.00;;;;;;;21.56;64.64;101752.91;4963010;28;102307;-66
2022/07/19 00:43:50;;;;;;;3.70;1.98;;;;;;;21.57;64.64;101760.09;4962848;28;103893;-66
2022/07/19 00:46:20;;;;;;;3.85;2.47;;;;;;;21.57;64.44;101754.56;4959195;28;102658;-65
2022/07/19 00:48:48;;;;;;;5.32;2.40;;;;;;;21.55;64.48;101756.81;4961213;28;102491;-65
2022/07/19 00:51:16;;;;;;;4.38;2.67;;;;;;;21.55;64.81;101752.09;4962575;28;102473;-65
2022/07/19 00:53:44;;;;;;;4.93;2.45;;;;;;;21.55;64.68;101751.28;4964470;28;103739;-66
2022/07/19 00:56:13;;;;;;;4.95;2.47;;;;;;;21.55;64.71;101751.28;4975530;28;102294;-65
2022/07/19 00:58:41;;;;;;;5.73;3.10;;;;;;;21.55;64.51;101745.75;4975863;28;102268;-65
2022/07/19 01:01:09;;;;;;;3.27;2.70;;;;;;;21.55;64.68;101751.28;4977282;28;102883;-66
2022/07/19 01:03:39;;;;;;;4.28;2.72;;;;;;;21.54;64.70;101749.66;4974644;28;103861;-65
2022/07/19 01:06:06;;;;;;;4.80;2.50;;;;;;;21.54;64.63;101760.75;4976848;28;102151;-65
2022/07/19 01:08:33;;;;;;;3.72;2.72;;;;;;;21.54;64.71;101742.16;4957521;28;102324;-66
2022/07/19 01:11:02;;;;;;;5.15;2.72;;;;;;;21.54;64.81;101744.13;4958014;28;102456;-67
2022/07/19 01:13:28;;;;;;;3.92;2.80;;;;;;;21.54;64.69;101741.34;4957997;28;103900;-66
2022/07/19 01:15:55;;;;;;;3.33;2.30;;;;;;;21.54;64.87;101744.13;4956880;28;102359;-66
2022/07/19 01:18:21;;;;;;;4.70;2.33;;;;;;;21.54;64.77;101746.88;4973377;28;102271;-66
2022/07/19 01:20:50;;;;;;;4.57;1.98;;;;;;;21.53;64.62;101743.31;4977142;28;102639;-65
2022/07/19 01:23:19;;;;;;;2.95;2.60;;;;;;;21.54;64.70;101746.88;4972314;28;103980;-65
2022/07/19 01:25:46;;;;;;;3.90;2.40;;;;;;;21.54;64.66;101746.88;4965419;28;102144;-65
2022/07/19 01:28:12;;;;;;;4.38;2.25;;;;;;;21.55;64.60;101751.28;4959885;28;102043;-65
2022/07/19 01:30:39;;;;;;;4.65;2.50;;;;;;;21.54;64.82;101744.94;4958252;28;102258;-65
2022/07/19 01:33:06;;;;;;;4.25;2.58;;;;;;;21.55;65.15;101751.28;4974580;28;103963;-66
2022/07/19 01:35:34;;;;;;;3.03;2.17;;;;;;;21.54;64.97;101755.19;4975594;28;102198;-65
2022/07/19 01:38:00;;;;;;;3.20;2.20;;;;;;;21.54;64.75;101747.69;4961821;28;102267;-66
2022/07/19 01:40:28;;;;;;;2.88;2.03;;;;;;;21.54;64.91;101752.44;4961003;28;102574;-65
2022/07/19 01:42:55;;;;;;;2.13;1.77;;;;;;;21.54;64.92;101749.66;4959588;28;104135;-65
2022/07/19 01:45:21;;;;;;;3.03;2.10;;;;;;;21.53;64.90;101759.09;4961166;28;102185;-65
2022/07/19 01:47:48;;;;;;;4.10;2.22;;;;;;;21.54;64.75;101749.66;4979565;28;102276;-66
2022/07/19 01:50:17;;;;;;;3.00;2.25;;;;;;;21.54;64.72;101755.19;4977794;28;102631;-65
2022/07/19 01:52:45;;;;;;;3.47;2.30;;;;;;;21.54;64.87;101744.13;4976578;28;104076;-65
2022/07/19 01:55:13;;;;;;;3.20;2.08;;;;;;;21.53;64.78;101745.22;4960164;28;101909;-65
2022/07/19 01:57:41;;;;;;;2.33;2.10;;;;;;;21.53;64.62;101743.31;4978168;28;101933;-65
2022/07/19 02:00:08;;;;;;;;;;;;;;;21.54;64.64;101742.16;4979959;28;102167;-65
2022/07/19 02:02:35;;;;;;;5.82;2.50;;;;;;;21.54;64.37;101733.03;4978606;28;104143;-66
2022/07/19 02:05:03;;;;;;;4.97;2.42;;;;;;;21.53;64.39;101742.47;4970097;28;103184;-65
2022/07/19 02:07:30;;;;;;;3.45;2.42;;;;;;;21.53;64.28;101742.47;4976762;28;102425;-66
2022/07/19 02:09:57;;;;;;;3.47;2.28;;;;;;;21.53;64.33;101731.38;4980380;28;102245;-66
2022/07/19 02:12:24;;;;;;;6.45;2.45;;;;;;;21.54;64.20;101735.81;4978720;28;104158;-66
2022/07/19 02:14:52;;;;;;;3.25;2.38;;;;;;;21.52;64.18;101747.19;4978396;28;101922;-65
2022/07/19 02:17:21;;;;;;;2.80;2.10;;;;;;;21.53;64.09;101739.69;4978080;28;101865;-65
2022/07/19 02:19:48;;;;;;;4.15;2.70;;;;;;;21.54;64.19;101738.59;4980465;28;102204;-66
2022/07/19 02:22:15;;;;;;;3.05;2.10;;;;;;;21.53;64.01;101742.47;4977777;28;103965;-65
2022/07/19 02:24:42;;;;;;;2.38;2.17;;;;;;;21.53;64.23;101746.06;4979170;28;102333;-66
2022/07/19 02:27:10;;;;;;;2.95;2.10;;;;;;;21.54;64.08;101749.66;4970118;28;102075;-65
2022/07/19 02:29:37;;;;;;;3.80;2.22;;;;;;;21.53;64.29;101753.53;4960318;28;102473;-65
2022/07/19 02:32:07;;;;;;;4.38;2.22;;;;;;;21.53;64.25;101742.47;4960312;28;108286;-65
2022/07/19 02:34:34;;;;;;;3.90;2.53;;;;;;;21.53;64.16;101753.53;4978541;28;101983;-64
2022/07/19 02:37:00;;;;;;;3.70;2.20;;;;;;;21.53;64.15;101754.38;4971557;28;101866;-65
2022/07/19 02:39:27;;;;;;;3.65;2.17;;;;;;;21.52;64.01;101749.16;4960009;28;102256;-65
2022/07/19 02:41:54;;;;;;;3.83;1.95;;;;;;;21.53;64.21;101748.00;4975120;28;103852;-66
2022/07/19 02:44:20;;;;;;;4.70;2.28;;;;;;;21.53;64.45;101756.31;4979136;28;102432;-65
2022/07/19 02:46:47;;;;;;;2.33;1.80;;;;;;;21.52;64.26;101751.91;4977682;28;102731;-65
2022/07/19 02:49:15;;;;;;;3.78;2.17;;;;;;;21.51;64.35;101745.56;4979724;28;102168;-66
2022/07/19 02:51:42;;;;;;;3.83;1.85;;;;;;;21.52;64.12;101752.72;4973633;28;103704;-66
2022/07/19 02:54:09;;;;;;;3.15;2.10;;;;;;;21.52;64.24;101751.91;4968634;28;102368;-65
2022/07/19 02:56:36;;;;;;;3.60;2.05;;;;;;;21.51;63.98;101761.38;4973470;28;102231;-66
2022/07/19 02:59:03;;;;;;;2.28;1.70;;;;;;;21.51;64.19;101756.66;4979507;28;102234;-65
2022/07/19 03:01:29;;;;;;;3.45;1.67;;;;;;;21.51;64.08;101756.66;4966797;28;103919;-67
2022/07/19 03:03:56;;;;;;;2.25;2.05;;;;;;;21.51;64.15;101756.66;4969400;28;101848;-66
2022/07/19 03:06:24;;;;;;;2.80;1.90;;;;;;;21.51;64.21;101762.19;4976912;28;102276;-65
2022/07/19 03:08:52;;;;;;;2.92;1.90;;;;;;;21.51;64.42;101766.91;4959589;28;102312;-65
2022/07/19 03:11:20;;;;;;;2.10;1.90;;;;;;;21.48;64.70;101762.00;4968394;28;104171;-65
2022/07/19 03:13:47;;;;;;;2.65;2.00;;;;;;;21.48;64.96;101762.00;4978188;28;102540;-65
2022/07/19 03:16:14;;;;;;;2.35;1.95;;;;;;;21.49;64.83;101763.63;4965850;28;102000;-66
2022/07/19 03:18:41;;;;;;;2.08;1.80;;;;;;;21.49;65.17;101767.25;4977383;28;102172;-65
2022/07/19 03:21:08;;;;;;;3.53;1.98;;;;;;;21.49;64.87;101766.41;4977209;28;103898;-65
2022/07/19 03:23:37;;;;;;;2.03;1.83;;;;;;;21.48;65.11;101767.56;4977631;28;102134;-65
2022/07/19 03:26:04;;;;;;;2.97;1.90;;;;;;;21.49;64.98;101769.16;4977800;28;102699;-65
2022/07/19 03:28:31;;;;;;;2.92;2.20;;;;;;;21.51;65.04;101766.91;4966292;28;102537;-66
2022/07/19 03:30:57;;;;;;;2.40;2.00;;;;;;;21.49;65.35;101764.47;4976287;28;103939;-66
2022/07/19 03:33:24;;;;;;;2.22;1.80;;;;;;;21.50;65.52;101773.59;4958670;28;102391;-66
2022/07/19 03:35:51;;;;;;;2.65;1.52;;;;;;;21.51;65.77;101773.25;4957834;28;102393;-66
2022/07/19 03:38:18;;;;;;;2.72;2.00;;;;;;;21.50;65.88;101771.63;4959318;28;102186;-66
2022/07/19 03:40:47;;;;;;;4.30;2.00;;;;;;;21.50;65.94;101777.19;4962731;28;103991;-66
2022/07/19 03:43:15;;;;;;;2.00;1.80;;;;;;;21.50;66.12;101774.41;4972571;28;103053;-65
2022/07/19 03:45:42;;;;;;;3.95;1.80;;;;;;;21.51;66.02;101783.53;4957331;28;102204;-66
2022/07/19 03:48:08;;;;;;;2.22;1.48;;;;;;;21.51;66.27;101783.53;4959164;28;102598;-67
2022/07/19 03:50:36;;;;;;;2.80;1.80;;;;;;;21.50;66.65;101776.38;4957540;28;103924;-67
2022/07/19 03:53:02;;;;;;;3.67;2.15;;;;;;;21.50;66.61;101781.91;4963144;28;102459;-66
2022/07/19 03:55:29;;;;;;;2.60;1.80;;;;;;;21.49;66.79;101786.63;4957712;28;102186;-66
2022/07/19 03:57:57;;;;;;;2.45;1.60;;;;;;;21.49;66.71;101781.09;4963884;28;102191;-65
2022/07/19 04:00:23;;;;;;;2.50;1.50;;;;;;;21.50;66.64;101788.25;4956801;28;104061;-65
2022/07/19 04:02:50;;;;;;;1.70;1.58;;;;;;;21.51;66.59;101778.00;4973090;28;102080;-66
2022/07/19 04:05:17;;;;;;;2.08;1.60;;;;;;;21.52;66.85;101801.78;4977211;28;102244;-66
2022/07/19 04:07:44;;;;;;;3.00;1.60;;;;;;;21.52;66.77;101790.69;4978033;28;102216;-65
2022/07/19 04:10:10;;;;;;;3.08;1.70;;;;;;;21.52;66.80;101790.69;4977262;28;103762;-66
2022/07/19 04:12:38;;;;;;;3.72;1.90;;;;;;;21.53;66.81;101792.31;4957452;28;102646;-66
2022/07/19 04:15:07;;;;;;;2.38;1.70;;;;;;;21.52;66.91;101790.69;4957330;28;102662;-65
2022/07/19 04:17:36;;;;;;;2.88;2.17;;;;;;;21.53;66.86;101792.31;4964848;28;102306;-66
2022/07/19 04:20:03;;;;;;;3.83;2.50;;;;;;;21.54;66.73;101797.56;4976346;28;103855;-67
2022/07/19 04:22:30;;;;;;;3.40;2.20;;;;;;;21.54;66.80;101789.25;4976602;28;102212;-66
2022/07/19 04:24:56;;;;;;;2.47;1.88;;;;;;;21.55;66.50;101795.59;4963630;28;102147;-66
2022/07/19 04:27:23;;;;;;;2.53;1.95;;;;;;;21.56;66.93;101791.69;4976239;28;102539;-66
2022/07/19 04:29:50;;;;;;;2.10;1.80;;;;;;;21.57;67.06;101793.34;4976935;28;104090;-65
2022/07/19 04:32:18;;;;;;;2.67;1.73;;;;;;;21.57;66.98;101793.34;4972047;28;102430;-66
2022/07/19 04:34:44;;;;;;;3.55;1.60;;;;;;;21.57;66.96;101790.56;4977357;28;102034;-66
2022/07/19 04:37:11;;;;;;;3.72;1.88;;;;;;;21.58;66.98;101792.19;4976815;28;102488;-66
2022/07/19 04:39:39;;;;;;;2.50;1.67;;;;;;;21.58;67.16;101789.44;4968270;28;104078;-65
2022/07/19 04:42:05;;;;;;;2.83;1.80;;;;;;;21.58;66.96;101789.44;4963413;28;102394;-66
2022/07/19 04:44:32;;;;;;;4.00;1.70;;;;;;;21.58;67.12;101792.19;4976017;28;102180;-66
2022/07/19 04:46:59;;;;;;;2.50;1.65;;;;;;;21.58;67.14;101790.25;4978001;28;102341;-66
2022/07/19 04:49:27;;;;;;;3.85;2.03;;;;;;;21.58;67.00;101789.44;4975316;28;103923;-66
2022/07/19 04:51:53;;;;;;;4.23;1.90;;;;;;;21.59;66.89;101791.06;4961043;28;102404;-66
2022/07/19 04:54:20;;;;;;;2.65;1.70;;;;;;;21.60;67.15;101787.13;4964327;28;102057;-65
2022/07/19 04:56:47;;;;;;;1.73;1.45;;;;;;;21.60;66.94;101787.13;4962959;28;102564;-66
2022/07/19 04:59:13;;;;;;;2.58;1.50;;;;;;;21.62;67.17;101790.41;4975029;28;104383;-67
2022/07/19 05:01:40;;;;;;;3.55;1.70;;;;;;;21.62;66.81;101795.16;4965002;28;102293;-65
2022/07/19 05:04:06;;;;;;;3.15;1.98;;;;;;;21.63;67.00;101794.00;4968496;28;102302;-66
2022/07/19 05:06:35;;;;;;;3.58;1.92;;;;;;;21.64;67.03;101798.38;4976397;28;102209;-66
2022/07/19 05:09:03;;;;;;;2.53;1.60;;;;;;;21.63;66.87;101786.50;4957704;28;103864;-66
2022/07/19 05:11:30;;;;;;;2.22;1.70;;;;;;;21.65;67.16;101783.44;4960965;28;102050;-66
2022/07/19 05:13:56;;;;;;;1.98;1.48;;;;;;;21.67;67.06;101786.69;4960222;28;102472;-66
2022/07/19 05:16:23;;;;;;;2.95;1.70;;;;;;;21.67;66.94;101790.25;4972880;28;102214;-56
2022/07/19 05:18:49;;;;;;;2.28;1.70;;;;;;;21.69;67.10;101789.97;4976681;28;103936;-66
2022/07/19 05:21:16;;;;;;;1.65;1.38;;;;;;;21.70;67.01;101789.63;4960633;28;101985;-65
2022/07/19 05:23:44;;;;;;;3.50;1.80;;;;;;;21.71;66.98;101788.50;4965582;28;102324;-66
2022/07/19 05:26:10;;;;;;;3.63;1.80;;;;;;;21.73;66.90;101779.84;4979474;28;102054;-65
2022/07/19 05:28:37;;;;;;;2.40;1.70;;;;;;;21.76;66.81;101780.03;4978787;28;104165;-65
2022/07/19 05:31:04;;;;;;;1.90;1.70;;;;;;;21.77;67.03;101787.19;4969630;28;102223;-65
2022/07/19 05:33:32;;;;;;;2.42;1.88;;;;;;;21.79;66.89;101768.31;4979263;28;101981;-65
2022/07/19 05:35:58;;;;;;;3.65;1.50;;;;;;;21.80;66.45;101778.25;4974189;28;102121;-66
2022/07/19 05:38:25;;;;;;;2.35;1.75;;;;;;;21.81;66.75;101782.66;4977378;28;104002;-66
2022/07/19 05:40:53;;;;;;;1.45;1.35;;;;;;;21.84;66.67;101776.47;4979613;28;102044;-65
2022/07/19 05:43:20;;;;;;;2.10;1.87;;;;;;;21.86;66.65;101778.13;4978783;28;102483;-65
2022/07/19 05:45:47;;;;;;;2.63;1.58;;;;;;;21.87;66.65;101769.47;4980409;28;102657;-66
2022/07/19 05:48:14;;;;;;;3.30;1.80;;;;;;;21.90;66.73;101777.13;4977279;28;104107;-64
2022/07/19 05:50:40;;;;;;;2.92;1.75;;;;;;;21.91;66.51;101769.63;4975896;28;102366;-66
2022/07/19 05:53:07;;;;;;;1.92;1.50;;;;;;;21.96;66.50;101772.25;4975006;28;102582;-65
2022/07/19 05:55:34;;;;;;;1.98;1.50;;;;;;;21.97;66.35;101776.66;4975875;28;102359;-66
2022/07/19 05:58:02;;;;;;;2.20;1.80;;;;;;;21.99;65.75;101774.38;4962986;28;103918;-66
2022/07/19 06:00:28;;;;;;;1.80;1.43;;;;;;;22.00;66.10;101767.72;4973426;28;101987;-66
2022/07/19 06:02:55;;;;;;;1.50;1.30;;;;;;;22.01;66.42;101775.69;4975176;28;104763;-65
2022/07/19 06:05:21;;;;;;;2.67;1.75;;;;;;;22.02;66.19;101776.50;4978576;28;102200;-66
2022/07/19 06:07:48;;;;;;;1.83;1.65;;;;;;;22.02;66.33;101776.50;4977881;28;104109;-66
2022/07/19 06:10:15;;;;;;;2.08;1.60;;;;;;;22.03;66.21;101767.88;4979776;28;101935;-65
2022/07/19 06:12:42;;;;;;;1.90;1.60;;;;;;;22.05;66.19;101771.13;4977960;28;102140;-65
2022/07/19 06:15:11;;;;;;;1.70;1.60;;;;;;;22.05;66.12;101770.31;4980883;28;102216;-66
2022/07/19 06:17:37;;;;;;;2.60;1.30;;;;;;;22.07;66.06;101773.59;4975934;28;103896;-67
2022/07/19 06:20:06;;;;;;;2.03;1.83;;;;;;;22.10;64.94;101772.91;4973560;28;102237;-67
2022/07/19 06:22:33;;;;;;;2.60;1.63;;;;;;;22.11;66.05;101768.19;4967494;28;102151;-66
2022/07/19 06:24:59;;;;;;;2.13;1.70;;;;;;;22.12;65.36;101770.66;4963077;28;102156;-66
2022/07/19 06:27:26;;;;;;;2.20;1.58;;;;;;;22.13;65.12;101765.94;4958844;28;103909;-66
2022/07/19 06:29:53;;;;;;;3.17;1.60;;;;;;;22.13;65.11;101765.94;4959529;28;101950;-65
2022/07/19 06:32:21;;;;;;;1.98;1.50;;;;;;;22.13;65.31;101766.72;4967151;28;102192;-65
2022/07/19 06:34:49;;;;;;;2.63;1.60;;;;;;;22.15;65.70;101764.50;4969148;28;102650;-65
2022/07/19 06:37:15;;;;;;;2.55;1.55;;;;;;;22.16;65.96;101763.34;4958591;28;103955;-65
2022/07/19 06:39:42;;;;;;;2.55;1.55;;;;;;;22.15;65.72;101764.50;4971467;28;102093;-65
2022/07/19 06:42:08;;;;;;;2.25;1.67;;;;;;;22.17;65.17;101770.53;4975102;28;102448;-65
2022/07/19 06:44:35;;;;;;;2.45;1.30;;;;;;;22.17;65.57;101773.28;4979556;28;102133;-66
2022/07/19 06:47:01;;;;;;;2.47;1.73;;;;;;;22.18;65.90;101769.41;4977770;28;103937;-66
2022/07/19 06:49:29;;;;;;;3.05;1.48;;;;;;;22.18;65.15;101771.34;4979101;28;102223;-66
2022/07/19 06:51:56;;;;;;;1.75;1.40;;;;;;;22.20;64.77;101775.41;4972762;28;102549;-67
2022/07/19 06:54:23;;;;;;;1.80;1.30;;;;;;;22.21;65.35;101770.69;4969454;28;102381;-66
2022/07/19 06:56:49;;;;;;;2.30;1.40;;;;;;;22.21;65.78;101773.47;4972724;28;103995;-66
2022/07/19 06:59:16;;;;;;;1.75;1.30;;;;;;;22.22;65.68;101777.88;4966497;28;102018;-65
2022/07/19 07:01:42;;;;;;;1.67;1.48;;;;;;;22.23;65.30;101776.75;4971135;28;102699;-65
2022/07/19 07:04:10;;;;;;;1.60;1.50;;;;;;;22.23;65.00;101782.28;4976977;28;103669;-65
2022/07/19 07:06:38;;;;;;;3.33;1.52;;;;;;;22.25;65.04;101786.38;4970503;28;103944;-66
2022/07/19 07:09:05;;;;;;;1.90;1.40;;;;;;;22.24;65.10;101776.41;4967300;28;102387;-66
2022/07/19 07:11:31;;;;;;;2.00;1.58;;;;;;;22.26;64.72;101776.91;4975349;28;102697;-66
2022/07/19 07:13:58;;;;;;;1.60;1.45;;;;;;;22.26;64.22;101779.69;4974752;28;102505;-65
2022/07/19 07:16:24;;;;;;;1.38;1.27;;;;;;;22.27;65.04;101781.28;4978026;28;104039;-66
2022/07/19 07:18:51;;;;;;;1.83;1.23;;;;;;;22.25;64.79;101783.59;4975011;28;102260;-67
2022/07/19 07:21:26;;;;;;;2.20;1.30;;;;;;;22.28;64.26;101779.34;4977341;28;102376;-66
2022/07/19 07:23:54;;;;;;;2.13;1.17;;;;;;;22.29;64.95;101781.81;4973689;28;102233;-66
2022/07/19 07:26:20;;;;;;;3.53;1.33;;;;;;;22.30;64.15;101780.66;4976187;28;104026;-66
2022/07/19 07:28:47;;;;;;;1.80;1.52;;;;;;;22.29;64.41;101781.81;4966820;28;102605;-66
2022/07/19 07:31:14;;;;;;;2.03;1.40;;;;;;;22.30;63.95;101782.63;4962544;28;102186;-66
2022/07/19 07:33:40;;;;;;;2.20;1.17;;;;;;;22.28;65.14;101780.16;4977838;28;102293;-67
2022/07/19 07:36:07;;;;;;;2.75;1.35;;;;;;;22.28;64.80;101782.91;4977958;28;104487;-66
2022/07/19 07:38:34;;;;;;;2.00;1.35;;;;;;;22.29;65.17;101787.34;4975065;28;102581;-66
2022/07/19 07:41:03;;;;;;;2.33;1.55;;;;;;;22.29;64.27;101776.25;4977964;28;102399;-66
2022/07/19 07:43:32;;;;;;;1.80;1.58;;;;;;;22.31;64.10;101787.00;4977646;28;102134;-67
2022/07/19 07:45:59;;;;;;;2.20;1.38;;;;;;;22.31;64.80;101784.25;4974689;28;103875;-66
2022/07/19 07:48:25;;;;;;;1.50;1.20;;;;;;;22.27;65.42;101775.75;4972762;28;102208;-66
2022/07/19 07:50:52;;;;;;;1.45;1.35;;;;;;;22.28;65.71;101780.16;4975888;28;102053;-66
2022/07/19 07:53:18;;;;;;;1.23;1.13;;;;;;;22.28;65.50;101780.16;4972419;28;102544;-66
2022/07/19 07:55:45;;;;;;;1.23;1.02;;;;;;;22.28;64.77;101780.16;4972175;28;103950;-66
2022/07/19 07:58:13;;;;;;;1.65;1.20;;;;;;;22.31;64.41;101770.38;4957723;28;101894;-67
2022/07/19 08:00:40;;;;;;;3.38;1.40;;;;;;;22.33;63.59;101775.63;4957965;28;102043;-66
2022/07/19 08:03:07;;;;;;;1.50;1.13;;;;;;;22.34;63.62;101778.03;4964623;28;102242;-66
2022/07/19 08:05:34;;;;;;;1.58;1.48;;;;;;;22.34;63.62;101772.50;4966655;28;107992;-65
2022/07/19 08:08:01;;;;;;;2.10;1.30;;;;;;;22.33;63.83;101768.09;4977668;28;102271;-66
2022/07/19 08:10:32;;;;;;;2.45;1.17;;;;;;;22.32;63.82;101772.00;4976408;28;101973;-66
2022/07/19 08:12:58;;;;;;;1.65;1.20;;;;;;;22.33;64.59;101767.28;4977636;28;102681;-66
2022/07/19 08:15:27;;;;;;;1.98;1.30;;;;;;;22.29;64.54;101767.94;4976791;28;103896;-66
2022/07/19 08:17:54;;;;;;;1.52;1.42;;;;;;;22.31;65.31;101767.59;4977331;28;102273;-66
2022/07/19 08:20:21;;;;;;;2.25;1.20;;;;;;;22.30;64.74;101777.06;4977182;28;102304;-66
2022/07/19 08:22:48;;;;;;;1.38;1.20;;;;;;;22.30;65.28;101771.53;4974385;28;104810;-66
2022/07/19 08:25:16;;;;;;;1.15;0.90;;;;;;;22.31;64.63;101762.88;4969761;28;104087;-66
2022/07/19 08:27:44;;;;;;;1.10;0.98;;;;;;;22.28;64.94;101769.06;4975708;28;102346;-67
2022/07/19 08:30:11;;;;;;;2.05;1.20;;;;;;;22.27;65.78;101770.22;4977255;28;102338;-67
2022/07/19 08:32:40;;;;;;;3.67;1.02;;;;;;;22.28;65.31;101771.00;4977514;28;102573;-67
2022/07/19 08:35:08;;;;;;;1.60;1.02;;;;;;;22.27;65.33;101767.44;4972388;28;103940;-66
2022/07/19 08:37:34;;;;;;;1.20;1.10;;;;;;;22.25;65.41;101769.72;4976236;28;102190;-67
2022/07/19 08:40:04;;;;;;;4.77;1.20;;;;;;;22.27;65.55;101767.44;4968228;28;102969;-66
2022/07/19 08:42:31;;;;;;;;;;;;;;;22.24;65.65;101765.31;4977854;28;102465;-67
2022/07/19 08:45:03;;;;;;;2.53;1.33;;;;;;;22.24;65.79;101757.00;4974366;28;103925;-67
2022/07/19 08:47:31;;;;;;;1.85;1.63;;;;;;;22.23;65.65;101758.13;4971353;28;102335;-66
2022/07/19 08:50:00;;;;;;;1.73;1.30;;;;;;;22.26;65.47;101748.38;4974578;28;102308;-66
2022/07/19 08:52:27;;;;;;;1.73;1.30;;;;;;;22.25;65.46;101755.88;4976703;28;102357;-67
2022/07/19 08:54:55;;;;;;;2.58;1.27;;;;;;;22.27;65.28;101755.53;4972412;28;104028;-66
2022/07/19 09:00:09;;;;;;;1.65;1.10;;;;;;;22.24;65.66;101739.53;4966175;28;104574;-67
2022/07/19 09:02:35;;;;;;;1.40;1.27;;;;;;;22.22;65.34;101742.66;4977171;28;102373;-66
2022/07/19 09:05:10;;;;;;;;;;;;;;;22.25;65.26;101739.22;4976474;28;104029;-66
2022/07/19 09:07:38;;;;;;;0.90;0.90;;;;;;;22.27;65.01;101728.63;4975659;28;102330;-66
2022/07/19 09:10:16;;;;;;;;;;;;;;;22.22;65.66;101731.56;4976475;28;104718;-68
2022/07/19 09:13:00;;;;;;;1.30;1.20;;;;;;;22.20;65.55;101728.28;4970293;28;102351;-66
2022/07/19 09:15:46;;;;;;;1.33;1.08;;;;;;;22.18;65.60;101732.50;4975896;28;104243;-66
2022/07/19 09:18:16;;;;;;;1.48;0.90;;;;;;;22.14;65.59;101729.56;4968197;28;102755;-67
2022/07/19 09:20:45;;;;;;;1.20;1.10;;;;;;;22.13;65.56;101727.91;4964819;28;107957;-67
2022/07/19 09:23:12;;;;;;;1.08;1.05;;;;;;;22.11;65.52;101723.84;4962861;28;102211;-66
2022/07/19 09:25:40;;;;;;;1.20;1.10;;;;;;;22.08;65.42;101719.78;4956853;28;104251;-67
2022/07/19 09:28:07;;;;;;;2.25;1.38;;;;;;;22.08;65.49;101720.59;4956393;28;102340;-66
2022/07/19 09:30:36;;;;;;;1.73;1.20;;;;;;;22.09;65.55;101721.41;4958467;28;101881;-66
2022/07/19 09:33:08;;;;;;;1.42;1.15;;;;;;;22.08;65.62;101719.78;4957587;28;102192;-67
2022/07/19 09:35:41;;;;;;;1.65;1.05;;;;;;;22.07;65.66;101715.38;4969393;28;104020;-66
2022/07/19 09:38:34;;;;;;;1.20;1.10;;;;;;;22.09;65.56;101715.84;4976589;28;102451;-67
2022/07/19 09:41:11;;;;;;;1.30;1.20;;;;;;;22.06;65.79;101708.19;4946643;28;102143;-66
2022/07/19 09:43:53;;;;;;;1.02;1.00;;;;;;;22.06;65.65;101711.78;4966579;28;102091;-67
2022/07/19 09:46:30;;;;;;;1.10;1.00;;;;;;;22.05;65.89;101715.69;4971097;28;103926;-67
2022/07/19 09:49:05;;;;;;;1.00;0.90;;;;;;;22.04;65.62;101713.25;4966506;28;102217;-66
2022/07/19 09:51:34;;;;;;;1.63;1.00;;;;;;;22.03;65.97;101711.59;4956490;28;102302;-67
2022/07/19 09:54:04;;;;;;;0.90;0.90;;;;;;;22.00;65.82;101706.75;4970705;28;102383;-67
2022/07/19 09:56:32;;;;;;;1.70;1.00;;;;;;;21.99;65.87;101700.34;4972469;28;103961;-67
2022/07/19 09:58:59;;;;;;;1.07;0.97;;;;;;;22.00;65.70;101698.41;4960170;28;102247;-66
2022/07/19 10:01:27;;;;;;;1.30;1.20;;;;;;;22.00;65.88;101695.66;4959982;28;102189;-67
2022/07/19 10:03:58;;;;;;;1.60;1.15;;;;;;;22.00;65.80;101706.75;4970433;28;102151;-67
2022/07/19 10:06:26;;;;;;;1.05;1.00;;;;;;;22.00;65.82;101701.19;4978105;28;108284;-66
2022/07/19 10:08:53;;;;;;;1.58;1.13;;;;;;;21.98;65.72;101703.47;4979177;28;101994;-65
2022/07/19 10:11:21;;;;;;;2.70;1.02;;;;;;;21.97;66.16;101691.56;4979227;28;102038;-67
2022/07/19 10:13:49;;;;;;;1.17;1.08;;;;;;;21.99;66.06;101682.91;4979987;28;102393;-66
2022/07/19 10:16:22;;;;;;;1.20;1.00;;;;;;;22.00;66.20;101685.38;4977732;28;103755;-66
2022/07/19 10:19:03;;;;;;;1.05;0.98;;;;;;;22.00;66.18;101685.38;4960244;28;102257;-66
2022/07/19 10:21:31;;;;;;;1.10;1.00;;;;;;;22.00;65.89;101684.56;4961050;28;102213;-66
2022/07/19 10:24:00;;;;;;;1.07;0.97;;;;;;;21.99;66.02;101678.19;4969340;28;102666;-67
2022/07/19 10:26:39;;;;;;;1.33;1.23;;;;;;;21.99;66.22;101674.59;4977716;28;104051;-66
2022/07/19 10:29:10;;;;;;;1.25;1.13;;;;;;;22.00;66.37;101679.03;4976388;28;102117;-67
2022/07/19 10:31:37;;;;;;;1.20;1.10;;;;;;;22.02;66.13;101671.19;4976178;28;102444;-66
2022/07/19 10:34:07;;;;;;;1.13;1.02;;;;;;;22.03;66.35;101672.81;4977055;28;102256;-67
2022/07/19 10:36:40;;;;;;;1.73;1.23;;;;;;;22.03;66.32;101672.81;4977428;28;103926;-66
2022/07/19 10:39:27;;;;;;;2.13;1.30;;;;;;;22.03;66.51;101662.56;4978743;28;101993;-67
2022/07/19 10:42:09;;;;;;;1.23;1.13;;;;;;;22.02;66.57;101660.09;4976129;28;102053;-66
2022/07/19 10:45:11;;;;;;;1.20;1.10;;;;;;;22.00;66.51;101657.66;4974647;28;102558;-67
2022/07/19 10:48:14;;;;;;;0.93;0.90;;;;;;;22.00;66.59;101656.84;4957529;28;108037;-66
2022/07/19 10:50:50;;;;;;;1.20;1.10;;;;;;;21.98;66.40;101653.56;4967831;28;102233;-66
2022/07/19 10:53:52;;;;;;;1.15;1.05;;;;;;;21.99;66.50;101649.66;4971730;28;102182;-67
2022/07/19 10:56:20;;;;;;;1.83;1.23;;;;;;;22.02;66.08;101654.53;4967848;28;102466;-67
2022/07/19 10:58:50;;;;;;;1.57;1.47;;;;;;;22.03;66.57;101653.41;4960541;28;103975;-66
2022/07/19 11:01:18;;;;;;;1.10;1.00;;;;;;;22.04;66.41;101641.19;4976682;28;102708;-67
2022/07/19 11:03:45;;;;;;;1.20;1.10;;;;;;;22.00;66.62;101646.56;4967614;28;101926;-67
2022/07/19 11:06:19;;;;;;;1.30;1.20;;;;;;;22.00;66.42;101648.53;4979623;28;102370;-67
2022/07/19 11:08:46;;;;;;;0.93;0.93;;;;;;;21.99;66.53;101638.56;4976763;28;103951;-66
2022/07/19 11:11:14;;;;;;;1.23;1.13;;;;;;;21.98;66.31;101639.72;4976330;28;102444;-66
2022/07/19 11:13:45;;;;;;;1.23;1.10;;;;;;;21.97;66.36;101632.56;4975675;28;102223;-66
2022/07/19 11:16:14;;;;;;;1.13;1.02;;;;;;;21.96;66.47;101634.50;4974460;28;102668;-66
2022/07/19 11:18:41;;;;;;;1.15;1.00;;;;;;;21.98;66.60;101631.41;4975827;28;103979;-66
2022/07/19 11:21:07;;;;;;;1.77;1.20;;;;;;;21.97;66.28;101629.78;4978479;28;102085;-66
2022/07/19 11:23:36;;;;;;;1.10;1.00;;;;;;;21.97;66.52;101630.59;4972301;28;102165;-67
2022/07/19 11:26:07;;;;;;;1.20;1.10;;;;;;;21.96;66.53;101630.91;4972268;28;102270;-66
2022/07/19 11:28:34;;;;;;;0.95;0.90;;;;;;;21.95;66.33;101616.22;4976103;28;108103;-66